sensor_id;sensor_type;location;lat;lon;timestamp;P1;durP1;ratioP1;P2;durP2;ratioP2
13419;SDS011;6781;58.440;15.470;2023-03-14T00:01:00;3.20;;;0.70;;
13419;SDS011;6781;58.440;15.470;2023-03-14T00:03:36;1.77;;;0.73;;
13419;SDS011;6781;58.440;15.470;2023-03-14T00:06:03;1.03;;;0.50;;
13419;SDS011;6781;58.440;15.470;2023-03-14T00:08:30;2.57;;;0.60;;
13419;SDS011;6781;58.440;15.470;2023-03-14T00:10:57;1.03;;;0.60;;
13419;SDS011;6781;58.440;15.470;2023-03-14T00:13:29;1.53;;;0.60;;
13419;SDS011;6781;58.440;15.470;2023-03-14T00:16:01;1.30;;;0.40;;
13419;SDS011;6781;58.440;15.470;2023-03-14T00:18:28;2.20;;;0.50;;
13419;SDS011;6781;58.440;15.470;2023-03-14T00:20:58;0.60;;;0.40;;
13419;SDS011;6781;58.440;15.470;2023-03-14T00:23:26;0.57;;;0.40;;
13419;SDS011;6781;58.440;15.470;2023-03-14T00:25:54;1.13;;;0.50;;
13419;SDS011;6781;58.440;15.470;2023-03-14T00:28:25;1.17;;;0.53;;
13419;SDS011;6781;58.440;15.470;2023-03-14T00:30:52;1.20;;;0.50;;
13419;SDS011;6781;58.440;15.470;2023-03-14T00:33:19;1.30;;;0.50;;
13419;SDS011;6781;58.440;15.470;2023-03-14T00:35:52;1.30;;;0.57;;
13419;SDS011;6781;58.440;15.470;2023-03-14T00:38:21;0.40;;;0.40;;
13419;SDS011;6781;58.440;15.470;2023-03-14T00:40:49;1.13;;;0.30;;
13419;SDS011;6781;58.440;15.470;2023-03-14T00:43:16;2.27;;;0.60;;
13419;SDS011;6781;58.440;15.470;2023-03-14T00:45:46;1.00;;;0.57;;
13419;SDS011;6781;58.440;15.470;2023-03-14T00:48:13;0.60;;;0.40;;
13419;SDS011;6781;58.440;15.470;2023-03-14T00:50:40;0.83;;;0.43;;
13419;SDS011;6781;58.440;15.470;2023-03-14T00:53:07;0.53;;;0.47;;
13419;SDS011;6781;58.440;15.470;2023-03-14T00:55:37;1.07;;;0.60;;
13419;SDS011;6781;58.440;15.470;2023-03-14T00:58:05;0.80;;;0.57;;
13419;SDS011;6781;58.440;15.470;2023-03-14T01:00:32;1.47;;;0.60;;
13419;SDS011;6781;58.440;15.470;2023-03-14T01:02:59;0.43;;;0.40;;
13419;SDS011;6781;58.440;15.470;2023-03-14T01:05:26;0.97;;;0.40;;
13419;SDS011;6781;58.440;15.470;2023-03-14T01:07:54;0.67;;;0.40;;
13419;SDS011;6781;58.440;15.470;2023-03-14T01:10:21;0.97;;;0.50;;
13419;SDS011;6781;58.440;15.470;2023-03-14T01:12:49;0.70;;;0.43;;
13419;SDS011;6781;58.440;15.470;2023-03-14T01:15:17;2.17;;;0.80;;
13419;SDS011;6781;58.440;15.470;2023-03-14T01:17:44;0.53;;;0.50;;
13419;SDS011;6781;58.440;15.470;2023-03-14T01:20:11;0.40;;;0.40;;
13419;SDS011;6781;58.440;15.470;2023-03-14T01:22:40;2.80;;;0.60;;
13419;SDS011;6781;58.440;15.470;2023-03-14T01:25:08;2.13;;;0.60;;
13419;SDS011;6781;58.440;15.470;2023-03-14T01:27:37;2.80;;;0.70;;
13419;SDS011;6781;58.440;15.470;2023-03-14T01:30:06;0.53;;;0.40;;
13419;SDS011;6781;58.440;15.470;2023-03-14T01:32:34;1.07;;;0.47;;
13419;SDS011;6781;58.440;15.470;2023-03-14T01:35:02;1.37;;;0.57;;
13419;SDS011;6781;58.440;15.470;2023-03-14T01:37:29;2.03;;;0.50;;
13419;SDS011;6781;58.440;15.470;2023-03-14T01:39:56;0.93;;;0.60;;
13419;SDS011;6781;58.440;15.470;2023-03-14T01:42:23;3.30;;;0.50;;
13419;SDS011;6781;58.440;15.470;2023-03-14T01:44:51;1.63;;;0.80;;
13419;SDS011;6781;58.440;15.470;2023-03-14T01:47:22;1.33;;;0.60;;
13419;SDS011;6781;58.440;15.470;2023-03-14T01:49:50;2.03;;;0.77;;
13419;SDS011;6781;58.440;15.470;2023-03-14T01:52:20;1.70;;;0.73;;
13419;SDS011;6781;58.440;15.470;2023-03-14T01:54:51;1.70;;;0.90;;
13419;SDS011;6781;58.440;15.470;2023-03-14T01:57:22;2.90;;;0.70;;
13419;SDS011;6781;58.440;15.470;2023-03-14T01:59:54;2.77;;;0.40;;
13419;SDS011;6781;58.440;15.470;2023-03-14T02:02:26;1.77;;;0.60;;
13419;SDS011;6781;58.440;15.470;2023-03-14T02:07:33;1.13;;;0.50;;
13419;SDS011;6781;58.440;15.470;2023-03-14T02:10:05;0.90;;;0.50;;
13419;SDS011;6781;58.440;15.470;2023-03-14T02:12:33;1.07;;;0.50;;
13419;SDS011;6781;58.440;15.470;2023-03-14T02:15:02;1.63;;;0.50;;
13419;SDS011;6781;58.440;15.470;2023-03-14T02:17:31;0.70;;;0.53;;
13419;SDS011;6781;58.440;15.470;2023-03-14T02:20:10;1.00;;;0.60;;
13419;SDS011;6781;58.440;15.470;2023-03-14T02:22:48;0.57;;;0.30;;
13419;SDS011;6781;58.440;15.470;2023-03-14T02:25:16;2.43;;;0.60;;
13419;SDS011;6781;58.440;15.470;2023-03-14T02:27:51;0.37;;;0.27;;
13419;SDS011;6781;58.440;15.470;2023-03-14T02:30:19;1.23;;;0.40;;
13419;SDS011;6781;58.440;15.470;2023-03-14T02:32:47;0.60;;;0.40;;
13419;SDS011;6781;58.440;15.470;2023-03-14T02:35:18;0.40;;;0.40;;
13419;SDS011;6781;58.440;15.470;2023-03-14T02:37:49;0.63;;;0.23;;
13419;SDS011;6781;58.440;15.470;2023-03-14T02:40:21;0.60;;;0.30;;
13419;SDS011;6781;58.440;15.470;2023-03-14T02:42:48;0.50;;;0.20;;
13419;SDS011;6781;58.440;15.470;2023-03-14T02:48:15;1.07;;;0.30;;
13419;SDS011;6781;58.440;15.470;2023-03-14T02:50:45;0.57;;;0.43;;
13419;SDS011;6781;58.440;15.470;2023-03-14T02:53:14;0.70;;;0.30;;
13419;SDS011;6781;58.440;15.470;2023-03-14T02:55:45;0.30;;;0.27;;
13419;SDS011;6781;58.440;15.470;2023-03-14T02:58:13;0.30;;;0.30;;
13419;SDS011;6781;58.440;15.470;2023-03-14T03:00:45;0.70;;;0.30;;
13419;SDS011;6781;58.440;15.470;2023-03-14T03:03:13;0.30;;;0.30;;
13419;SDS011;6781;58.440;15.470;2023-03-14T03:05:40;0.63;;;0.30;;
13419;SDS011;6781;58.440;15.470;2023-03-14T03:08:09;0.50;;;0.30;;
13419;SDS011;6781;58.440;15.470;2023-03-14T03:10:36;0.37;;;0.20;;
13419;SDS011;6781;58.440;15.470;2023-03-14T03:13:03;3.73;;;0.47;;
13419;SDS011;6781;58.440;15.470;2023-03-14T03:15:30;0.93;;;0.30;;
13419;SDS011;6781;58.440;15.470;2023-03-14T03:17:59;1.70;;;0.47;;
13419;SDS011;6781;58.440;15.470;2023-03-14T03:20:26;0.57;;;0.30;;
13419;SDS011;6781;58.440;15.470;2023-03-14T03:22:53;0.43;;;0.23;;
13419;SDS011;6781;58.440;15.470;2023-03-14T03:25:20;0.80;;;0.20;;
13419;SDS011;6781;58.440;15.470;2023-03-14T03:27:47;0.30;;;0.13;;
13419;SDS011;6781;58.440;15.470;2023-03-14T03:30:14;1.30;;;0.20;;
13419;SDS011;6781;58.440;15.470;2023-03-14T03:32:42;0.23;;;0.23;;
13419;SDS011;6781;58.440;15.470;2023-03-14T03:35:10;0.83;;;0.20;;
13419;SDS011;6781;58.440;15.470;2023-03-14T03:37:38;0.30;;;0.30;;
13419;SDS011;6781;58.440;15.470;2023-03-14T03:40:05;0.63;;;0.20;;
13419;SDS011;6781;58.440;15.470;2023-03-14T03:42:34;2.97;;;0.40;;
13419;SDS011;6781;58.440;15.470;2023-03-14T03:45:01;0.60;;;0.30;;
13419;SDS011;6781;58.440;15.470;2023-03-14T03:47:29;0.73;;;0.40;;
13419;SDS011;6781;58.440;15.470;2023-03-14T03:49:56;2.17;;;0.40;;
13419;SDS011;6781;58.440;15.470;2023-03-14T03:52:25;0.40;;;0.40;;
13419;SDS011;6781;58.440;15.470;2023-03-14T03:54:52;0.77;;;0.50;;
13419;SDS011;6781;58.440;15.470;2023-03-14T03:57:19;0.90;;;0.50;;
13419;SDS011;6781;58.440;15.470;2023-03-14T03:59:46;0.53;;;0.50;;
13419;SDS011;6781;58.440;15.470;2023-03-14T04:02:13;0.87;;;0.40;;
13419;SDS011;6781;58.440;15.470;2023-03-14T04:04:40;0.60;;;0.60;;
13419;SDS011;6781;58.440;15.470;2023-03-14T04:07:07;0.77;;;0.70;;
13419;SDS011;6781;58.440;15.470;2023-03-14T04:09:36;0.70;;;0.70;;
13419;SDS011;6781;58.440;15.470;2023-03-14T04:12:03;1.00;;;0.90;;
13419;SDS011;6781;58.440;15.470;2023-03-14T04:14:31;1.13;;;1.00;;
13419;SDS011;6781;58.440;15.470;2023-03-14T04:16:58;0.80;;;0.80;;
13419;SDS011;6781;58.440;15.470;2023-03-14T04:19:25;2.37;;;1.10;;
13419;SDS011;6781;58.440;15.470;2023-03-14T04:21:52;1.47;;;1.00;;
13419;SDS011;6781;58.440;15.470;2023-03-14T04:24:19;2.53;;;1.20;;
13419;SDS011;6781;58.440;15.470;2023-03-14T04:26:47;1.63;;;1.00;;
13419;SDS011;6781;58.440;15.470;2023-03-14T04:29:14;1.10;;;1.00;;
13419;SDS011;6781;58.440;15.470;2023-03-14T04:31:41;1.30;;;1.20;;
13419;SDS011;6781;58.440;15.470;2023-03-14T04:34:08;1.53;;;1.43;;
13419;SDS011;6781;58.440;15.470;2023-03-14T04:36:36;2.53;;;1.40;;
13419;SDS011;6781;58.440;15.470;2023-03-14T04:39:03;3.17;;;1.30;;
13419;SDS011;6781;58.440;15.470;2023-03-14T04:41:30;4.20;;;1.40;;
13419;SDS011;6781;58.440;15.470;2023-03-14T04:44:00;1.53;;;1.40;;
13419;SDS011;6781;58.440;15.470;2023-03-14T04:46:27;4.37;;;1.57;;
13419;SDS011;6781;58.440;15.470;2023-03-14T04:48:54;1.40;;;1.30;;
13419;SDS011;6781;58.440;15.470;2023-03-14T04:51:21;1.20;;;1.10;;
13419;SDS011;6781;58.440;15.470;2023-03-14T04:53:52;2.23;;;1.43;;
13419;SDS011;6781;58.440;15.470;2023-03-14T04:56:19;2.60;;;1.20;;
13419;SDS011;6781;58.440;15.470;2023-03-14T04:58:46;1.93;;;1.50;;
13419;SDS011;6781;58.440;15.470;2023-03-14T05:01:15;3.13;;;1.37;;
13419;SDS011;6781;58.440;15.470;2023-03-14T05:03:42;4.23;;;1.50;;
13419;SDS011;6781;58.440;15.470;2023-03-14T05:06:10;3.90;;;1.60;;
13419;SDS011;6781;58.440;15.470;2023-03-14T05:08:37;1.80;;;1.37;;
13419;SDS011;6781;58.440;15.470;2023-03-14T05:11:04;2.37;;;1.30;;
13419;SDS011;6781;58.440;15.470;2023-03-14T05:13:31;1.40;;;1.30;;
13419;SDS011;6781;58.440;15.470;2023-03-14T05:16:05;3.20;;;1.40;;
13419;SDS011;6781;58.440;15.470;2023-03-14T05:18:35;1.90;;;1.50;;
13419;SDS011;6781;58.440;15.470;2023-03-14T05:21:02;6.07;;;1.73;;
13419;SDS011;6781;58.440;15.470;2023-03-14T05:23:30;3.80;;;1.40;;
13419;SDS011;6781;58.440;15.470;2023-03-14T05:25:57;2.70;;;1.83;;
13419;SDS011;6781;58.440;15.470;2023-03-14T05:28:24;3.13;;;1.60;;
13419;SDS011;6781;58.440;15.470;2023-03-14T05:30:51;1.90;;;1.40;;
13419;SDS011;6781;58.440;15.470;2023-03-14T05:33:18;3.00;;;1.80;;
13419;SDS011;6781;58.440;15.470;2023-03-14T05:35:46;5.33;;;1.70;;
13419;SDS011;6781;58.440;15.470;2023-03-14T05:38:16;2.13;;;1.57;;
13419;SDS011;6781;58.440;15.470;2023-03-14T05:40:52;6.40;;;1.40;;
13419;SDS011;6781;58.440;15.470;2023-03-14T05:43:19;2.67;;;1.37;;
13419;SDS011;6781;58.440;15.470;2023-03-14T05:45:46;4.80;;;1.87;;
13419;SDS011;6781;58.440;15.470;2023-03-14T05:48:16;9.30;;;1.87;;
13419;SDS011;6781;58.440;15.470;2023-03-14T05:50:43;5.20;;;1.63;;
13419;SDS011;6781;58.440;15.470;2023-03-14T05:53:15;6.07;;;1.70;;
13419;SDS011;6781;58.440;15.470;2023-03-14T05:55:42;5.43;;;2.00;;
13419;SDS011;6781;58.440;15.470;2023-03-14T05:58:09;11.03;;;2.10;;
13419;SDS011;6781;58.440;15.470;2023-03-14T06:00:38;4.57;;;1.70;;
13419;SDS011;6781;58.440;15.470;2023-03-14T06:03:05;12.63;;;2.00;;
13419;SDS011;6781;58.440;15.470;2023-03-14T06:05:32;9.27;;;2.67;;
13419;SDS011;6781;58.440;15.470;2023-03-14T06:07:59;9.17;;;2.50;;
13419;SDS011;6781;58.440;15.470;2023-03-14T06:10:28;6.40;;;2.07;;
13419;SDS011;6781;58.440;15.470;2023-03-14T06:12:55;9.13;;;2.10;;
13419;SDS011;6781;58.440;15.470;2023-03-14T06:15:22;10.17;;;2.40;;
13419;SDS011;6781;58.440;15.470;2023-03-14T06:17:49;7.50;;;2.20;;
13419;SDS011;6781;58.440;15.470;2023-03-14T06:20:16;9.43;;;2.07;;
13419;SDS011;6781;58.440;15.470;2023-03-14T06:22:46;10.90;;;2.80;;
13419;SDS011;6781;58.440;15.470;2023-03-14T06:25:13;13.53;;;2.27;;
13419;SDS011;6781;58.440;15.470;2023-03-14T06:27:43;10.00;;;2.57;;
13419;SDS011;6781;58.440;15.470;2023-03-14T06:30:13;11.33;;;2.30;;
13419;SDS011;6781;58.440;15.470;2023-03-14T06:32:40;9.63;;;2.60;;
13419;SDS011;6781;58.440;15.470;2023-03-14T06:35:07;10.87;;;1.90;;
13419;SDS011;6781;58.440;15.470;2023-03-14T06:37:35;8.43;;;2.07;;
13419;SDS011;6781;58.440;15.470;2023-03-14T06:40:02;10.37;;;2.37;;
13419;SDS011;6781;58.440;15.470;2023-03-14T06:42:32;8.47;;;1.97;;
13419;SDS011;6781;58.440;15.470;2023-03-14T06:45:01;7.97;;;2.47;;
13419;SDS011;6781;58.440;15.470;2023-03-14T06:47:29;8.13;;;2.47;;
13419;SDS011;6781;58.440;15.470;2023-03-14T06:49:56;8.87;;;2.50;;
13419;SDS011;6781;58.440;15.470;2023-03-14T06:52:23;11.20;;;2.47;;
13419;SDS011;6781;58.440;15.470;2023-03-14T06:54:50;9.83;;;2.43;;
13419;SDS011;6781;58.440;15.470;2023-03-14T06:57:17;11.27;;;2.70;;
13419;SDS011;6781;58.440;15.470;2023-03-14T06:59:44;10.90;;;2.57;;
13419;SDS011;6781;58.440;15.470;2023-03-14T07:02:13;8.03;;;2.43;;
13419;SDS011;6781;58.440;15.470;2023-03-14T07:04:41;9.73;;;2.47;;
13419;SDS011;6781;58.440;15.470;2023-03-14T07:07:08;6.77;;;2.50;;
13419;SDS011;6781;58.440;15.470;2023-03-14T07:09:35;9.37;;;2.73;;
13419;SDS011;6781;58.440;15.470;2023-03-14T07:12:02;11.03;;;2.67;;
13419;SDS011;6781;58.440;15.470;2023-03-14T07:14:30;10.10;;;2.53;;
13419;SDS011;6781;58.440;15.470;2023-03-14T07:16:57;12.20;;;3.00;;
13419;SDS011;6781;58.440;15.470;2023-03-14T07:19:38;8.63;;;2.40;;
13419;SDS011;6781;58.440;15.470;2023-03-14T07:22:05;14.63;;;2.87;;
13419;SDS011;6781;58.440;15.470;2023-03-14T07:24:32;11.33;;;3.13;;
13419;SDS011;6781;58.440;15.470;2023-03-14T07:26:59;8.83;;;2.60;;
13419;SDS011;6781;58.440;15.470;2023-03-14T07:29:29;9.35;;;2.75;;
13419;SDS011;6781;58.440;15.470;2023-03-14T07:31:55;9.40;;;3.00;;
13419;SDS011;6781;58.440;15.470;2023-03-14T07:34:22;13.00;;;3.10;;
13419;SDS011;6781;58.440;15.470;2023-03-14T07:36:51;11.20;;;2.75;;
13419;SDS011;6781;58.440;15.470;2023-03-14T07:39:18;9.87;;;2.90;;
13419;SDS011;6781;58.440;15.470;2023-03-14T07:41:45;8.60;;;3.17;;
13419;SDS011;6781;58.440;15.470;2023-03-14T07:44:12;8.67;;;3.50;;
13419;SDS011;6781;58.440;15.470;2023-03-14T07:46:39;7.73;;;2.83;;
13419;SDS011;6781;58.440;15.470;2023-03-14T07:49:06;9.07;;;3.20;;
13419;SDS011;6781;58.440;15.470;2023-03-14T07:51:33;13.23;;;2.93;;
13419;SDS011;6781;58.440;15.470;2023-03-14T07:54:01;9.47;;;3.10;;
13419;SDS011;6781;58.440;15.470;2023-03-14T07:56:28;11.47;;;3.13;;
13419;SDS011;6781;58.440;15.470;2023-03-14T07:58:56;9.93;;;2.73;;
13419;SDS011;6781;58.440;15.470;2023-03-14T08:01:23;8.20;;;2.60;;
13419;SDS011;6781;58.440;15.470;2023-03-14T08:03:50;7.27;;;3.00;;
13419;SDS011;6781;58.440;15.470;2023-03-14T08:06:17;6.97;;;2.30;;
13419;SDS011;6781;58.440;15.470;2023-03-14T08:08:44;6.67;;;2.40;;
13419;SDS011;6781;58.440;15.470;2023-03-14T08:11:16;4.13;;;2.07;;
13419;SDS011;6781;58.440;15.470;2023-03-14T08:13:43;6.40;;;2.50;;
13419;SDS011;6781;58.440;15.470;2023-03-14T08:16:14;5.17;;;1.70;;
13419;SDS011;6781;58.440;15.470;2023-03-14T08:18:42;7.47;;;1.73;;
13419;SDS011;6781;58.440;15.470;2023-03-14T08:21:12;4.57;;;1.50;;
13419;SDS011;6781;58.440;15.470;2023-03-14T08:23:39;5.23;;;1.90;;
13419;SDS011;6781;58.440;15.470;2023-03-14T08:26:06;2.87;;;2.17;;
13419;SDS011;6781;58.440;15.470;2023-03-14T08:28:35;3.87;;;1.50;;
13419;SDS011;6781;58.440;15.470;2023-03-14T08:31:02;4.77;;;2.40;;
13419;SDS011;6781;58.440;15.470;2023-03-14T08:33:30;3.97;;;1.47;;
13419;SDS011;6781;58.440;15.470;2023-03-14T08:35:57;4.90;;;1.63;;
13419;SDS011;6781;58.440;15.470;2023-03-14T08:38:26;1.83;;;1.47;;
13419;SDS011;6781;58.440;15.470;2023-03-14T08:40:56;4.17;;;1.40;;
13419;SDS011;6781;58.440;15.470;2023-03-14T08:43:24;4.90;;;1.70;;
13419;SDS011;6781;58.440;15.470;2023-03-14T08:45:53;5.40;;;1.67;;
13419;SDS011;6781;58.440;15.470;2023-03-14T08:48:20;2.80;;;1.30;;
13419;SDS011;6781;58.440;15.470;2023-03-14T08:50:47;3.40;;;1.47;;
13419;SDS011;6781;58.440;15.470;2023-03-14T08:53:14;2.87;;;1.17;;
13419;SDS011;6781;58.440;15.470;2023-03-14T08:55:43;2.73;;;0.93;;
13419;SDS011;6781;58.440;15.470;2023-03-14T08:58:11;2.67;;;1.80;;
13419;SDS011;6781;58.440;15.470;2023-03-14T09:00:38;5.23;;;1.33;;
13419;SDS011;6781;58.440;15.470;2023-03-14T09:03:06;3.17;;;1.27;;
13419;SDS011;6781;58.440;15.470;2023-03-14T09:05:34;2.47;;;1.10;;
13419;SDS011;6781;58.440;15.470;2023-03-14T09:08:01;4.37;;;1.27;;
13419;SDS011;6781;58.440;15.470;2023-03-14T09:10:28;2.57;;;1.30;;
13419;SDS011;6781;58.440;15.470;2023-03-14T09:12:56;4.43;;;1.40;;
13419;SDS011;6781;58.440;15.470;2023-03-14T09:15:23;3.20;;;1.17;;
13419;SDS011;6781;58.440;15.470;2023-03-14T09:17:50;2.73;;;1.00;;
13419;SDS011;6781;58.440;15.470;2023-03-14T09:20:19;2.17;;;1.10;;
13419;SDS011;6781;58.440;15.470;2023-03-14T09:22:46;4.37;;;1.07;;
13419;SDS011;6781;58.440;15.470;2023-03-14T09:25:13;2.93;;;0.90;;
13419;SDS011;6781;58.440;15.470;2023-03-14T09:27:40;3.93;;;1.30;;
13419;SDS011;6781;58.440;15.470;2023-03-14T09:30:08;1.73;;;0.83;;
13419;SDS011;6781;58.440;15.470;2023-03-14T09:32:36;3.33;;;0.90;;
13419;SDS011;6781;58.440;15.470;2023-03-14T09:35:03;1.60;;;1.00;;
13419;SDS011;6781;58.440;15.470;2023-03-14T09:37:33;1.57;;;0.73;;
13419;SDS011;6781;58.440;15.470;2023-03-14T09:40:00;2.70;;;0.90;;
13419;SDS011;6781;58.440;15.470;2023-03-14T09:42:33;2.57;;;0.90;;
13419;SDS011;6781;58.440;15.470;2023-03-14T09:45:03;1.77;;;1.20;;
13419;SDS011;6781;58.440;15.470;2023-03-14T09:47:33;2.03;;;1.07;;
13419;SDS011;6781;58.440;15.470;2023-03-14T09:50:00;1.33;;;0.80;;
13419;SDS011;6781;58.440;15.470;2023-03-14T09:52:29;1.43;;;0.53;;
13419;SDS011;6781;58.440;15.470;2023-03-14T09:55:01;0.57;;;0.57;;
13419;SDS011;6781;58.440;15.470;2023-03-14T09:57:32;1.43;;;0.90;;
13419;SDS011;6781;58.440;15.470;2023-03-14T10:00:01;2.93;;;0.80;;
13419;SDS011;6781;58.440;15.470;2023-03-14T10:02:38;1.23;;;0.60;;
13419;SDS011;6781;58.440;15.470;2023-03-14T10:07:42;0.60;;;0.60;;
13419;SDS011;6781;58.440;15.470;2023-03-14T10:10:12;1.60;;;0.80;;
13419;SDS011;6781;58.440;15.470;2023-03-14T10:12:44;0.50;;;0.50;;
13419;SDS011;6781;58.440;15.470;2023-03-14T10:15:13;0.50;;;0.50;;
13419;SDS011;6781;58.440;15.470;2023-03-14T10:17:47;1.43;;;0.57;;
13419;SDS011;6781;58.440;15.470;2023-03-14T10:20:25;2.00;;;0.70;;
13419;SDS011;6781;58.440;15.470;2023-03-14T10:22:58;1.63;;;0.50;;
13419;SDS011;6781;58.440;15.470;2023-03-14T10:25:28;0.60;;;0.60;;
13419;SDS011;6781;58.440;15.470;2023-03-14T10:27:59;1.13;;;0.90;;
13419;SDS011;6781;58.440;15.470;2023-03-14T10:30:27;1.33;;;0.80;;
13419;SDS011;6781;58.440;15.470;2023-03-14T10:33:01;1.00;;;0.87;;
13419;SDS011;6781;58.440;15.470;2023-03-14T10:35:37;2.93;;;0.90;;
13419;SDS011;6781;58.440;15.470;2023-03-14T10:38:04;1.93;;;0.90;;
13419;SDS011;6781;58.440;15.470;2023-03-14T10:40:33;0.50;;;0.50;;
13419;SDS011;6781;58.440;15.470;2023-03-14T10:43:05;1.67;;;0.80;;
13419;SDS011;6781;58.440;15.470;2023-03-14T10:45:35;0.50;;;0.50;;
13419;SDS011;6781;58.440;15.470;2023-03-14T10:48:16;0.63;;;0.50;;
13419;SDS011;6781;58.440;15.470;2023-03-14T10:50:53;0.77;;;0.50;;
13419;SDS011;6781;58.440;15.470;2023-03-14T10:53:22;1.13;;;0.50;;
13419;SDS011;6781;58.440;15.470;2023-03-14T10:55:52;1.27;;;0.57;;
13419;SDS011;6781;58.440;15.470;2023-03-14T10:58:23;0.50;;;0.50;;
13419;SDS011;6781;58.440;15.470;2023-03-14T11:00:54;0.60;;;0.60;;
13419;SDS011;6781;58.440;15.470;2023-03-14T11:03:27;0.60;;;0.60;;
13419;SDS011;6781;58.440;15.470;2023-03-14T11:05:59;1.93;;;0.50;;
13419;SDS011;6781;58.440;15.470;2023-03-14T11:08:42;0.70;;;0.50;;
13419;SDS011;6781;58.440;15.470;2023-03-14T11:11:25;0.47;;;0.47;;
13419;SDS011;6781;58.440;15.470;2023-03-14T11:13:59;0.33;;;0.33;;
13419;SDS011;6781;58.440;15.470;2023-03-14T11:16:38;0.60;;;0.60;;
13419;SDS011;6781;58.440;15.470;2023-03-14T11:22:23;0.30;;;0.30;;
13419;SDS011;6781;58.440;15.470;2023-03-14T11:25:03;0.20;;;0.20;;
13419;SDS011;6781;58.440;15.470;2023-03-14T11:27:44;0.30;;;0.30;;
13419;SDS011;6781;58.440;15.470;2023-03-14T11:30:19;0.30;;;0.30;;
13419;SDS011;6781;58.440;15.470;2023-03-14T11:32:54;0.47;;;0.20;;
13419;SDS011;6781;58.440;15.470;2023-03-14T11:35:28;0.37;;;0.30;;
13419;SDS011;6781;58.440;15.470;2023-03-14T11:38:02;0.30;;;0.30;;
13419;SDS011;6781;58.440;15.470;2023-03-14T11:40:37;0.70;;;0.50;;
13419;SDS011;6781;58.440;15.470;2023-03-14T11:43:09;0.77;;;0.70;;
13419;SDS011;6781;58.440;15.470;2023-03-14T11:45:42;1.03;;;1.00;;
13419;SDS011;6781;58.440;15.470;2023-03-14T11:48:13;1.10;;;0.70;;
13419;SDS011;6781;58.440;15.470;2023-03-14T11:50:47;0.57;;;0.57;;
13419;SDS011;6781;58.440;15.470;2023-03-14T11:53:19;0.50;;;0.50;;
13419;SDS011;6781;58.440;15.470;2023-03-14T11:55:52;0.50;;;0.50;;
13419;SDS011;6781;58.440;15.470;2023-03-14T11:58:23;0.60;;;0.60;;
13419;SDS011;6781;58.440;15.470;2023-03-14T12:00:53;0.83;;;0.60;;
13419;SDS011;6781;58.440;15.470;2023-03-14T12:03:25;0.47;;;0.47;;
13419;SDS011;6781;58.440;15.470;2023-03-14T12:06:05;0.67;;;0.67;;
13419;SDS011;6781;58.440;15.470;2023-03-14T12:08:48;0.93;;;0.50;;
13419;SDS011;6781;58.440;15.470;2023-03-14T12:11:30;0.40;;;0.40;;
13419;SDS011;6781;58.440;15.470;2023-03-14T12:14:02;0.50;;;0.50;;
13419;SDS011;6781;58.440;15.470;2023-03-14T12:16:31;0.50;;;0.50;;
13419;SDS011;6781;58.440;15.470;2023-03-14T12:19:23;1.60;;;0.70;;
13419;SDS011;6781;58.440;15.470;2023-03-14T12:22:00;0.60;;;0.60;;
13419;SDS011;6781;58.440;15.470;2023-03-14T12:24:33;0.60;;;0.60;;
13419;SDS011;6781;58.440;15.470;2023-03-14T12:27:03;0.70;;;0.70;;
13419;SDS011;6781;58.440;15.470;2023-03-14T12:29:35;0.60;;;0.60;;
13419;SDS011;6781;58.440;15.470;2023-03-14T12:32:26;1.20;;;1.10;;
13419;SDS011;6781;58.440;15.470;2023-03-14T12:34:53;1.03;;;1.00;;
13419;SDS011;6781;58.440;15.470;2023-03-14T12:37:23;1.30;;;1.30;;
13419;SDS011;6781;58.440;15.470;2023-03-14T12:40:01;1.00;;;1.00;;
13419;SDS011;6781;58.440;15.470;2023-03-14T12:42:40;1.23;;;1.00;;
13419;SDS011;6781;58.440;15.470;2023-03-14T12:45:26;0.80;;;0.80;;
13419;SDS011;6781;58.440;15.470;2023-03-14T12:48:03;0.60;;;0.60;;
13419;SDS011;6781;58.440;15.470;2023-03-14T12:50:36;0.80;;;0.80;;
13419;SDS011;6781;58.440;15.470;2023-03-14T12:56:06;1.13;;;1.03;;
13419;SDS011;6781;58.440;15.470;2023-03-14T12:58:59;1.00;;;1.00;;
13419;SDS011;6781;58.440;15.470;2023-03-14T13:01:47;0.90;;;0.90;;
13419;SDS011;6781;58.440;15.470;2023-03-14T13:04:25;1.53;;;1.27;;
13419;SDS011;6781;58.440;15.470;2023-03-14T13:06:55;2.03;;;1.27;;
13419;SDS011;6781;58.440;15.470;2023-03-14T13:09:35;3.23;;;1.30;;
13419;SDS011;6781;58.440;15.470;2023-03-14T13:12:18;1.37;;;1.17;;
13419;SDS011;6781;58.440;15.470;2023-03-14T13:14:52;1.17;;;1.10;;
13419;SDS011;6781;58.440;15.470;2023-03-14T13:17:24;1.33;;;1.27;;
13419;SDS011;6781;58.440;15.470;2023-03-14T13:19:55;1.53;;;1.43;;
13419;SDS011;6781;58.440;15.470;2023-03-14T13:22:26;1.40;;;1.30;;
13419;SDS011;6781;58.440;15.470;2023-03-14T13:24:59;1.70;;;1.60;;
13419;SDS011;6781;58.440;15.470;2023-03-14T13:27:29;2.30;;;1.63;;
13419;SDS011;6781;58.440;15.470;2023-03-14T13:29:57;2.23;;;1.40;;
13419;SDS011;6781;58.440;15.470;2023-03-14T13:32:27;2.50;;;1.30;;
13419;SDS011;6781;58.440;15.470;2023-03-14T13:34:55;1.60;;;1.50;;
13419;SDS011;6781;58.440;15.470;2023-03-14T13:37:24;2.17;;;1.60;;
13419;SDS011;6781;58.440;15.470;2023-03-14T13:39:53;2.20;;;1.70;;
13419;SDS011;6781;58.440;15.470;2023-03-14T13:42:24;1.27;;;1.27;;
13419;SDS011;6781;58.440;15.470;2023-03-14T13:44:52;2.00;;;1.20;;
13419;SDS011;6781;58.440;15.470;2023-03-14T13:47:21;2.17;;;1.40;;
13419;SDS011;6781;58.440;15.470;2023-03-14T13:49:52;1.60;;;1.50;;
13419;SDS011;6781;58.440;15.470;2023-03-14T13:52:23;1.30;;;1.20;;
13419;SDS011;6781;58.440;15.470;2023-03-14T13:54:54;1.03;;;1.03;;
13419;SDS011;6781;58.440;15.470;2023-03-14T13:57:22;1.93;;;1.50;;
13419;SDS011;6781;58.440;15.470;2023-03-14T13:59:59;0.90;;;0.90;;
13419;SDS011;6781;58.440;15.470;2023-03-14T14:02:32;1.00;;;1.00;;
13419;SDS011;6781;58.440;15.470;2023-03-14T14:05:04;1.00;;;1.00;;
13419;SDS011;6781;58.440;15.470;2023-03-14T14:07:32;1.00;;;1.00;;
13419;SDS011;6781;58.440;15.470;2023-03-14T14:10:02;0.97;;;0.90;;
13419;SDS011;6781;58.440;15.470;2023-03-14T14:12:30;0.93;;;0.87;;
13419;SDS011;6781;58.440;15.470;2023-03-14T14:15:01;1.00;;;1.00;;
13419;SDS011;6781;58.440;15.470;2023-03-14T14:17:31;1.30;;;1.30;;
13419;SDS011;6781;58.440;15.470;2023-03-14T14:20:05;2.83;;;1.30;;
13419;SDS011;6781;58.440;15.470;2023-03-14T14:22:35;1.00;;;1.00;;
13419;SDS011;6781;58.440;15.470;2023-03-14T14:25:03;1.50;;;1.40;;
13419;SDS011;6781;58.440;15.470;2023-03-14T14:27:33;2.03;;;1.20;;
13419;SDS011;6781;58.440;15.470;2023-03-14T14:30:05;1.53;;;1.43;;
13419;SDS011;6781;58.440;15.470;2023-03-14T14:32:51;1.07;;;1.07;;
13419;SDS011;6781;58.440;15.470;2023-03-14T14:35:23;1.50;;;1.40;;
13419;SDS011;6781;58.440;15.470;2023-03-14T14:37:51;1.10;;;1.10;;
13419;SDS011;6781;58.440;15.470;2023-03-14T14:40:19;1.53;;;1.13;;
13419;SDS011;6781;58.440;15.470;2023-03-14T14:42:48;1.20;;;1.10;;
13419;SDS011;6781;58.440;15.470;2023-03-14T14:45:17;1.10;;;0.90;;
13419;SDS011;6781;58.440;15.470;2023-03-14T14:47:49;0.90;;;0.90;;
13419;SDS011;6781;58.440;15.470;2023-03-14T14:50:26;1.20;;;1.20;;
13419;SDS011;6781;58.440;15.470;2023-03-14T14:52:56;1.00;;;1.00;;
13419;SDS011;6781;58.440;15.470;2023-03-14T14:55:29;1.20;;;1.20;;
13419;SDS011;6781;58.440;15.470;2023-03-14T14:58:11;1.57;;;1.10;;
13419;SDS011;6781;58.440;15.470;2023-03-14T15:00:40;0.83;;;0.83;;
13419;SDS011;6781;58.440;15.470;2023-03-14T15:03:16;2.07;;;1.00;;
13419;SDS011;6781;58.440;15.470;2023-03-14T15:05:44;1.73;;;1.20;;
13419;SDS011;6781;58.440;15.470;2023-03-14T15:08:14;1.27;;;1.20;;
13419;SDS011;6781;58.440;15.470;2023-03-14T15:10:44;1.10;;;1.10;;
13419;SDS011;6781;58.440;15.470;2023-03-14T15:13:16;1.23;;;1.20;;
13419;SDS011;6781;58.440;15.470;2023-03-14T15:15:43;1.30;;;1.20;;
13419;SDS011;6781;58.440;15.470;2023-03-14T15:18:12;1.20;;;1.20;;